Time;durP1;ratioP1;P1;durP2;ratioP2;P2;SDS_P1;SDS_P2;PMS_P1;PMS_P2;Temp;Humidity;BMP_temperature;BMP_pressure;BME280_temperature;BME280_humidity;BME280_pressure;Samples;Min_cycle;Max_cycle;Signal;HPM_P1;HPM_P2
2022/09/12 00:01:32;;;;;;;;;;;;;;;15.11;85.24;101297.13;5006751;28;20284;-68
2022/09/12 00:04:01;;;;;;;;;;;;;;;15.39;83.43;101297.09;5007860;28;19921;-68
2022/09/12 00:06:28;;;;;;;;;;;;;;;15.51;82.23;101296.38;5007604;28;19932;-68
2022/09/12 00:08:55;;;;;;;;;;;;;;;14.98;84.58;101297.03;5006327;28;20370;-68
2022/09/12 00:11:21;;;;;;;;;;;;;;;14.92;84.92;101291.28;5007743;28;19925;-69
2022/09/12 00:13:47;;;;;;;;;;;;;;;14.94;85.31;101292.00;5005180;28;20015;-69
2022/09/12 00:16:15;;;;;;;;;;;;;;;15.19;84.25;101294.84;5001703;28;19983;-70
2022/09/12 00:18:42;;;;;;;;;;;;;;;15.54;82.50;101290.88;5008439;28;19921;-69
2022/09/12 00:21:10;;;;;;;;;;;;;;;15.51;81.38;101293.72;5004706;28;19975;-69
2022/09/12 00:23:36;;;;;;;;;;;;;;;15.65;81.00;101292.00;5006814;28;19976;-69
2022/09/12 00:26:03;;;;;;;;;;;;;;;15.23;83.00;101301.63;5002697;28;19922;-69
2022/09/12 00:28:30;;;;;;;;;;;;;;;15.30;83.89;101295.03;5004739;28;19921;-69
2022/09/12 00:30:56;;;;;;;;;;;;;;;15.14;84.67;101302.22;5004392;28;20397;-69
2022/09/12 00:33:22;;;;;;;;;;;;;;;15.31;84.00;101299.38;5008026;28;19965;-69
2022/09/12 00:35:51;;;;;;;;;;;;;;;15.64;81.76;101296.41;5004928;28;20331;-69
2022/09/12 00:38:20;;;;;;;;;;;;;;;15.41;82.08;101297.84;5005749;28;19925;-69
2022/09/12 00:40:46;;;;;;;;;;;;;;;15.23;83.52;101295.50;5006603;28;19921;-69
2022/09/12 00:43:13;;;;;;;;;;;;;;;14.91;84.93;101303.63;5004548;28;20008;-69
2022/09/12 00:45:41;;;;;;;;;;;;;;;14.88;86.50;101292.41;5005287;28;19929;-69
2022/09/12 00:48:16;;;;;;;;;;;;;;;15.06;85.76;101286.00;4990858;28;19922;-69
2022/09/12 00:50:42;;;;;;;;;;;;;;;15.54;83.95;101293.53;4986860;28;19981;-69
2022/09/12 00:53:09;;;;;;;;;;;;;;;15.78;82.36;101299.03;4985450;28;19921;-69
2022/09/12 00:55:40;;;;;;;;;;;;;;;15.93;82.24;101299.81;4986118;28;19929;-69
2022/09/12 00:58:09;;;;;;;;;;;;;;;15.91;81.98;101294.66;5005777;28;19999;-69
2022/09/12 01:00:35;;;;;;;;;;;;;;;15.68;83.21;101297.94;4999958;28;19980;-69
2022/09/12 01:03:03;;;;;;;;;;;;;;;15.30;85.63;101302.13;4987473;28;20023;-69
2022/09/12 01:05:31;;;;;;;;;;;;;;;15.18;86.70;101287.88;4984283;28;19926;-69
2022/09/12 01:07:57;;;;;;;;;;;;;;;15.15;87.33;101288.03;4986117;28;19972;-69
2022/09/12 01:10:23;;;;;;;;;;;;;;;15.09;87.58;101289.28;5001806;28;19921;-69
2022/09/12 01:12:51;;;;;;;;;;;;;;;15.63;85.52;101281.50;5006888;28;19960;-69
2022/09/12 01:15:17;;;;;;;;;;;;;;;16.04;82.69;101281.47;5005083;28;19944;-69
2022/09/12 01:17:51;;;;;;;;;;;;;;;16.41;80.83;101286.00;5003306;28;20026;-69
2022/09/12 01:20:28;;;;;;;;;;;;;;;16.17;81.52;101274.44;5005363;28;20500;-69
2022/09/12 01:23:08;;;;;;;;;;;;;;;15.92;83.11;101269.91;5006002;28;20007;-69
2022/09/12 01:25:41;;;;;;;;;;;;;;;15.73;84.12;101271.19;5005456;28;19921;-69
2022/09/12 01:28:22;;;;;;;;;;;;;;;15.40;86.21;101268.88;5006461;28;20344;-69
2022/09/12 01:30:54;;;;;;;;;;;;;;;15.92;84.01;101271.72;5005491;28;19964;-69
2022/09/12 01:33:41;;;;;;;;;;;;;;;16.25;82.43;101272.13;5006543;28;19956;-69
2022/09/12 01:36:25;;;;;;;;;;;;;;;16.10;82.67;101273.13;4985597;28;19922;-69
2022/09/12 01:38:58;;;;;;;;;;;;;;;15.93;82.98;101268.94;5004505;28;19922;-69
2022/09/12 01:41:25;;;;;;;;;;;;;;;15.59;85.33;101272.09;4993721;28;19928;-69
2022/09/12 01:43:58;;;;;;;;;;;;;;;15.28;87.50;101267.88;5000083;28;19925;-69
2022/09/12 01:46:31;;;;;;;;;;;;;;;15.27;88.19;101263.50;5005529;28;20459;-69
2022/09/12 01:49:01;;;;;;;;;;;;;;;15.99;84.48;101267.72;5005931;28;19929;-69
2022/09/12 01:51:31;;;;;;;;;;;;;;;16.44;82.06;101269.91;4995090;28;19968;-69
2022/09/12 01:54:03;;;;;;;;;;;;;;;16.00;84.17;101264.13;5004621;28;19956;-69
2022/09/12 01:56:32;;;;;;;;;;;;;;;15.69;86.41;101261.75;5003124;28;19926;-69
2022/09/12 01:59:01;;;;;;;;;;;;;;;16.20;83.81;101261.00;5004653;28;19922;-68
2022/09/12 02:01:30;;;;;;;;;;;;;;;16.08;83.23;101259.16;5005735;28;19952;-68
2022/09/12 02:04:00;;;;;;;;;;;;;;;16.12;83.43;101255.34;5005216;28;19921;-68
2022/09/12 02:06:29;;;;;;;;;;;;;;;15.12;87.46;101251.25;5007185;28;19952;-68
2022/09/12 02:08:59;;;;;;;;;;;;;;;15.40;87.19;101248.59;5006411;28;19960;-68
2022/09/12 02:11:25;;;;;;;;;;;;;;;15.91;84.09;101241.75;5003219;28;19956;-68
2022/09/12 02:13:54;;;;;;;;;;;;;;;16.13;82.61;101241.19;5005777;28;19944;-68
2022/09/12 02:16:23;;;;;;;;;;;;;;;16.48;80.98;101247.56;5006245;28;20296;-68
2022/09/12 02:18:51;;;;;;;;;;;;;;;16.73;79.88;101251.25;4993085;28;19953;-69
2022/09/12 02:21:19;;;;;;;;;;;;;;;16.96;78.16;101248.66;4989170;28;20440;-69
2022/09/12 02:23:48;;;;;;;;;;;;;;;16.93;76.95;101248.88;4990325;28;19937;-69
2022/09/12 02:26:18;;;;;;;;;;;;;;;16.52;77.74;101246.41;4979119;28;19922;-69
2022/09/12 02:28:45;;;;;;;;;;;;;;;16.26;78.55;101247.34;4989930;28;19925;-69
2022/09/12 02:31:15;;;;;;;;;;;;;;;16.52;77.55;101249.06;4987418;28;20301;-69
2022/09/12 02:33:46;;;;;;;;;;;;;;;16.61;76.07;101237.03;4997900;28;19952;-69
2022/09/12 02:36:23;;;;;;;;;;;;;;;15.66;80.48;101235.53;5009364;28;20108;-69
2022/09/12 02:38:50;;;;;;;;;;;;;;;15.50;81.72;101228.59;5002689;28;19932;-69
2022/09/12 02:41:19;;;;;;;;;;;;;;;15.86;80.03;101233.28;5001928;28;19922;-69
2022/09/12 02:43:45;;;;;;;;;;;;;;;16.11;78.12;101235.16;5003219;28;19961;-69
2022/09/12 02:46:15;;;;;;;;;;;;;;;16.00;77.59;101235.03;5008526;28;20293;-69
2022/09/12 02:48:43;;;;;;;;;;;;;;;15.90;78.00;101226.84;5006949;28;19953;-69
2022/09/12 02:51:09;;;;;;;;;;;;;;;15.62;79.10;101226.09;5008473;28;19996;-69
2022/09/12 02:53:37;;;;;;;;;;;;;;;15.69;78.47;101225.59;5008446;28;20023;-69
2022/09/12 02:56:05;;;;;;;;;;;;;;;15.94;77.18;101227.47;5002639;28;19925;-69
2022/09/12 02:58:31;;;;;;;;;;;;;;;16.00;76.43;101221.81;5006908;28;19960;-69
2022/09/12 03:01:02;;;;;;;;;;;;;;;15.99;75.37;101233.31;5009104;28;20324;-69
2022/09/12 03:03:38;;;;;;;;;;;;;;;15.91;74.65;101235.63;5007952;28;20022;-69
2022/09/12 03:06:07;;;;;;;;;;;;;;;15.76;74.77;101233.97;5005207;28;20008;-68
2022/09/12 03:08:46;;;;;;;;;;;;;;;15.74;74.41;101235.88;4994045;28;19960;-68
2022/09/12 03:11:25;;;;;;;;;;;;;;;15.33;75.43;101239.38;5003306;28;19999;-68
2022/09/12 03:13:56;;;;;;;;;;;;;;;14.90;77.08;101229.78;5007334;28;19921;-68
2022/09/12 03:16:27;;;;;;;;;;;;;;;14.57;78.90;101233.53;5006884;28;20366;-68
2022/09/12 03:18:58;;;;;;;;;;;;;;;14.58;80.63;101232.59;5007562;28;19928;-68
2022/09/12 03:21:26;;;;;;;;;;;;;;;14.73;79.53;101230.81;5006194;28;19922;-68
2022/09/12 03:23:59;;;;;;;;;;;;;;;14.00;82.64;101223.78;5004949;28;19934;-68
2022/09/12 03:26:28;;;;;;;;;;;;;;;14.16;82.66;101221.91;5007641;28;19971;-68
2022/09/12 03:28:55;;;;;;;;;;;;;;;13.72;85.76;101226.28;5007939;28;20000;-68
2022/09/12 03:31:21;;;;;;;;;;;;;;;14.01;85.72;101225.44;5007890;28;19961;-68
2022/09/12 03:33:48;;;;;;;;;;;;;;;14.22;84.17;101226.00;5007546;28;19921;-68
2022/09/12 03:36:15;;;;;;;;;;;;;;;13.91;86.91;101226.94;4997037;28;20333;-68
2022/09/12 03:38:42;;;;;;;;;;;;;;;14.51;82.97;101231.28;4988270;28;19929;-68
2022/09/12 03:41:09;;;;;;;;;;;;;;;14.58;81.78;101235.25;5005340;28;20370;-68
2022/09/12 03:43:35;;;;;;;;;;;;;;;14.80;80.58;101232.13;5007543;28;20007;-68
2022/09/12 03:46:02;;;;;;;;;;;;;;;14.78;78.73;101227.91;5005864;28;19953;-68
2022/09/12 03:48:30;;;;;;;;;;;;;;;14.30;78.80;101237.78;5005831;28;19988;-68
2022/09/12 03:50:59;;;;;;;;;;;;;;;14.32;79.14;101238.56;5006824;28;20365;-68
2022/09/12 03:53:25;;;;;;;;;;;;;;;13.98;80.59;101244.09;5007641;28;19933;-68
2022/09/12 03:55:51;;;;;;;;;;;;;;;13.86;81.76;101242.16;5005234;28;20387;-68
2022/09/12 03:58:19;;;;;;;;;;;;;;;13.79;83.08;101239.03;5007700;28;19921;-68
2022/09/12 04:00:45;;;;;;;;;;;;;;;13.84;83.36;101238.78;5007430;28;20381;-68
2022/09/12 04:03:12;;;;;;;;;;;;;;;14.07;82.44;101248.84;5006532;28;19929;-68
2022/09/12 04:05:38;;;;;;;;;;;;;;;13.81;83.38;101247.72;5007481;28;19975;-68
2022/09/12 04:08:04;;;;;;;;;;;;;;;13.48;84.50;101249.59;5006115;28;20365;-68
2022/09/12 04:10:31;;;;;;;;;;;;;;;13.42;86.64;101244.66;5005448;28;19995;-68
2022/09/12 04:12:57;;;;;;;;;;;;;;;13.34;89.10;101241.63;5007296;28;19921;-68
2022/09/12 04:15:25;;;;;;;;;;;;;;;13.55;88.23;101237.78;5004647;28;19921;-68
2022/09/12 04:17:51;;;;;;;;;;;;;;;13.85;85.92;101243.09;5005024;28;19921;-68
2022/09/12 04:20:18;;;;;;;;;;;;;;;13.98;85.25;101241.44;5006392;28;19921;-68
2022/09/12 04:22:44;;;;;;;;;;;;;;;14.08;84.05;101234.69;5005343;28;19927;-68
2022/09/12 04:25:10;;;;;;;;;;;;;;;13.88;84.47;101235.03;5005960;28;20631;-68
2022/09/12 04:27:37;;;;;;;;;;;;;;;13.48;86.15;101229.38;5006579;28;19925;-68
2022/09/12 04:30:03;;;;;;;;;;;;;;;13.78;85.57;101237.34;5003354;28;19926;-68
2022/09/12 04:32:31;;;;;;;;;;;;;;;14.34;82.83;101241.97;4987759;28;19969;-68
2022/09/12 04:34:57;;;;;;;;;;;;;;;14.78;79.73;101239.28;4998475;28;19941;-68
2022/09/12 04:37:23;;;;;;;;;;;;;;;14.86;78.32;101238.81;4997129;28;19921;-68
2022/09/12 04:39:50;;;;;;;;;;;;;;;15.06;77.35;101233.16;5002520;28;19922;-68
2022/09/12 04:42:17;;;;;;;;;;;;;;;14.91;76.86;101244.69;5007519;28;20309;-68
2022/09/12 04:44:43;;;;;;;;;;;;;;;14.67;77.26;101244.38;5000998;28;19929;-68
2022/09/12 04:47:09;;;;;;;;;;;;;;;14.66;76.96;101247.13;5005681;28;20013;-68
2022/09/12 04:49:37;;;;;;;;;;;;;;;14.30;77.64;101250.16;5007121;28;20385;-68
2022/09/12 04:52:03;;;;;;;;;;;;;;;14.12;78.31;101257.31;4993157;28;19921;-68
2022/09/12 04:54:29;;;;;;;;;;;;;;;14.21;78.26;101240.97;5001080;28;20176;-68
2022/09/12 04:56:55;;;;;;;;;;;;;;;14.10;78.29;101257.44;4989608;28;19973;-67
2022/09/12 04:59:22;;;;;;;;;;;;;;;13.63;81.21;101249.56;4982520;28;20011;-68
2022/09/12 05:01:48;;;;;;;;;;;;;;;14.12;79.84;101258.16;5005210;28;19926;-67
2022/09/12 05:04:14;;;;;;;;;;;;;;;14.26;78.75;101253.91;4995305;28;19967;-67
2022/09/12 05:06:42;;;;;;;;;;;;;;;13.57;82.08;101249.94;4999104;28;19921;-67
2022/09/12 05:09:10;;;;;;;;;;;;;;;13.67;82.02;101249.44;5001264;28;19988;-67
2022/09/12 05:11:38;;;;;;;;;;;;;;;13.70;81.77;101257.16;5004757;28;19957;-67
2022/09/12 05:14:04;;;;;;;;;;;;;;;13.94;81.07;101248.69;5004956;28;19922;-67
2022/09/12 05:16:31;;;;;;;;;;;;;;;13.73;80.47;101254.34;5005599;28;19925;-67
2022/09/12 05:18:58;;;;;;;;;;;;;;;13.74;82.51;101246.34;5006639;28;19979;-67
2022/09/12 05:21:25;;;;;;;;;;;;;;;13.88;81.90;101253.47;5005067;28;19922;-67
2022/09/12 05:23:53;;;;;;;;;;;;;;;13.44;84.00;101254.19;5006758;28;19944;-67
2022/09/12 05:26:20;;;;;;;;;;;;;;;14.07;83.69;101264.66;5005887;28;25812;-67
2022/09/12 05:28:47;;;;;;;;;;;;;;;14.35;81.24;101258.66;4995926;28;19921;-68
2022/09/12 05:31:14;;;;;;;;;;;;;;;13.72;84.95;101258.75;4995113;28;19922;-68
2022/09/12 05:33:41;;;;;;;;;;;;;;;14.10;84.32;101259.22;5006111;28;25555;-68
2022/09/12 05:36:09;;;;;;;;;;;;;;;14.28;83.45;101263.41;5000712;28;20218;-67
2022/09/12 05:38:36;;;;;;;;;;;;;;;14.41;82.98;101264.41;4984522;28;19922;-68
2022/09/12 05:41:05;;;;;;;;;;;;;;;14.67;82.45;101264.66;4996234;28;20374;-68
2022/09/12 05:43:31;;;;;;;;;;;;;;;14.70;82.28;101265.31;5004912;28;20416;-67
2022/09/12 05:46:00;;;;;;;;;;;;;;;14.51;83.79;101272.66;4999686;28;19928;-67
2022/09/12 05:48:27;;;;;;;;;;;;;;;14.85;83.09;101269.69;5005896;28;20001;-67
2022/09/12 05:50:58;;;;;;;;;;;;;;;14.40;85.74;101277.72;5004258;28;19928;-67
2022/09/12 05:53:27;;;;;;;;;;;;;;;14.33;87.14;101274.56;4995791;28;20337;-68
2022/09/12 05:56:01;;;;;;;;;;;;;;;15.03;83.97;101273.84;4990793;28;19922;-67
2022/09/12 05:58:29;;;;;;;;;;;;;;;15.59;81.91;101280.84;5008316;28;20007;-67
2022/09/12 06:00:55;;;;;;;;;;;;;;;16.10;79.26;101282.88;5012315;28;19995;-67
2022/09/12 06:03:21;;;;;;;;;;;;;;;16.02;78.85;101278.94;4989113;28;19930;-67
2022/09/12 06:05:47;;;;;;;;;;;;;;;15.87;79.46;101290.50;5006634;28;20680;-67
2022/09/12 06:08:14;;;;;;;;;;;;;;;16.30;79.08;101293.81;5005320;28;19960;-67
2022/09/12 06:10:40;;;;;;;;;;;;;;;17.33;74.39;101296.44;5004739;28;20414;-67
2022/09/12 06:13:07;;;;;;;;;;;;;;;17.78;72.15;101294.94;5007541;28;19921;-67
2022/09/12 06:15:35;;;;;;;;;;;;;;;17.23;73.68;101292.72;5005643;28;20441;-67
2022/09/12 06:18:01;;;;;;;;;;;;;;;17.06;74.84;101304.53;5005412;28;19925;-66
2022/09/12 06:20:27;;;;;;;;;;;;;;;17.34;75.15;101290.16;5010300;28;19929;-66
2022/09/12 06:22:53;;;;;;;;;;;;;;;17.71;73.58;101293.72;4998299;28;19944;-66
2022/09/12 06:25:21;;;;;;;;;;;;;;;17.81;73.09;101292.91;4994184;28;19975;-66
2022/09/12 06:27:48;;;;;;;;;;;;;;;19.11;67.97;101297.22;5001914;28;21886;-66
2022/09/12 06:30:14;;;;;;;;;;;;;;;19.14;67.94;101289.03;4998468;28;19928;-66
2022/09/12 06:32:42;;;;;;;;;;;;;;;18.97;68.77;101287.66;5009598;28;19933;-66
2022/09/12 06:35:08;;;;;;;;;;;;;;;18.86;69.50;101285.84;5008056;28;19952;-67
2022/09/12 06:37:34;;;;;;;;;;;;;;;19.86;68.17;101293.78;5007765;28;19925;-67
2022/09/12 06:40:01;;;;;;;;;;;;;;;20.91;64.47;101292.94;5007731;28;19951;-67
2022/09/12 06:42:27;;;;;;;;;;;;;;;20.51;63.60;101284.81;5001977;28;20135;-68
2022/09/12 06:44:53;;;;;;;;;;;;;;;20.14;67.00;101280.88;5005360;28;19960;-67
2022/09/12 06:47:20;;;;;;;;;;;;;;;21.08;64.63;101289.66;5009233;28;20342;-67
2022/09/12 06:49:47;;;;;;;;;;;;;;;22.24;59.64;101286.34;5004993;28;19943;-68
2022/09/12 06:52:13;;;;;;;;;;;;;;;22.23;60.89;101279.28;4991232;28;19969;-67
2022/09/12 06:54:39;;;;;;;;;;;;;;;22.21;60.86;101280.41;5004496;28;20289;-67
2022/09/12 06:57:06;;;;;;;;;;;;;;;22.15;59.25;101272.97;5002001;28;19922;-67
2022/09/12 06:59:32;;;;;;;;;;;;;;;22.12;60.02;101270.56;5005953;28;20384;-68
2022/09/12 07:01:58;;;;;;;;;;;;;;;22.08;60.19;101267.34;4989842;28;19922;-68
2022/09/12 07:04:24;;;;;;;;;;;;;;;21.45;62.48;101270.44;4996808;28;19968;-68
2022/09/12 07:06:52;;;;;;;;;;;;;;;22.01;60.88;101270.72;5008131;28;19929;-67
2022/09/12 07:09:18;;;;;;;;;;;;;;;22.03;59.33;101269.56;5007509;28;19976;-68
2022/09/12 07:11:44;;;;;;;;;;;;;;;21.63;60.85;101260.78;4995280;28;19926;-68
2022/09/12 07:14:11;;;;;;;;;;;;;;;21.62;62.53;101267.94;5008312;28;19994;-68
2022/09/12 07:16:38;;;;;;;;;;;;;;;22.00;60.30;101264.53;4990243;28;20398;-68
2022/09/12 07:19:05;;;;;;;;;;;;;;;22.23;58.49;101267.75;4989237;28;19922;-68
2022/09/12 07:21:31;;;;;;;;;;;;;;;22.68;56.84;101271.53;4992230;28;20004;-68
2022/09/12 07:23:59;;;;;;;;;;;;;;;23.18;58.19;101273.88;4978577;28;19925;-68
2022/09/12 07:26:26;;;;;;;;;;;;;;;23.29;55.59;101273.69;4981372;28;19988;-68
2022/09/12 07:28:53;;;;;;;;;;;;;;;23.57;55.73;101274.56;4975394;28;19953;-67
2022/09/12 07:31:21;;;;;;;;;;;;;;;24.39;54.67;101271.72;4969213;28;19922;-67
2022/09/12 07:33:49;;;;;;;;;;;;;;;25.31;50.17;101266.59;4967234;28;19922;-66
2022/09/12 07:36:16;;;;;;;;;;;;;;;24.78;51.33;101270.31;4987764;28;20468;-67
2022/09/12 07:38:42;;;;;;;;;;;;;;;24.58;54.66;101271.50;4988471;28;19928;-67
2022/09/12 07:41:13;;;;;;;;;;;;;;;23.79;53.75;101271.47;4985174;28;19921;-67
2022/09/12 07:43:40;;;;;;;;;;;;;;;24.35;53.28;101275.72;5006265;28;19949;-67
2022/09/12 07:46:07;;;;;;;;;;;;;;;24.92;50.17;101275.13;4993248;28;19943;-67
2022/09/12 07:48:33;;;;;;;;;;;;;;;24.59;52.21;101273.19;4987809;28;19980;-67
2022/09/12 07:51:00;;;;;;;;;;;;;;;23.23;53.81;101275.13;5003219;28;19928;-67
2022/09/12 07:53:27;;;;;;;;;;;;;;;24.00;53.71;101266.66;5008407;28;19921;-67
2022/09/12 07:55:53;;;;;;;;;;;;;;;24.48;51.64;101276.13;5005202;28;19931;-67
2022/09/12 07:58:21;;;;;;;;;;;;;;;25.40;49.40;101266.47;5006841;28;20378;-67
2022/09/12 08:00:47;;;;;;;;;;;;;;;25.85;47.17;101266.13;5003138;28;19922;-67
2022/09/12 08:03:13;;;;;;;;;;;;;;;25.92;44.61;101261.75;5004845;28;19926;-67
2022/09/12 08:05:39;;;;;;;;;;;;;;;25.81;46.38;101262.09;4994487;28;19988;-67
2022/09/12 08:08:06;;;;;;;;;;;;;;;26.88;45.09;101270.00;4973212;28;19922;-68
2022/09/12 08:10:32;;;;;;;;;;;;;;;26.97;42.48;101272.53;4990937;28;19995;-68
2022/09/12 08:12:58;;;;;;;;;;;;;;;26.90;43.84;101278.75;5005987;28;19957;-68
2022/09/12 08:15:26;;;;;;;;;;;;;;;25.63;45.47;101277.50;5007677;28;20604;-67
2022/09/12 08:17:52;;;;;;;;;;;;;;;25.38;43.14;101270.31;5006143;28;19961;-68
2022/09/12 08:20:19;;;;;;;;;;;;;;;25.91;45.23;101275.34;5006955;28;20262;-68
2022/09/12 08:22:45;;;;;;;;;;;;;;;26.54;42.70;101272.88;5007226;28;19929;-67
2022/09/12 08:25:11;;;;;;;;;;;;;;;26.24;42.50;101276.28;5005408;28;19957;-68
2022/09/12 08:27:38;;;;;;;;;;;;;;;26.85;41.12;101279.28;4991163;28;19922;-68
2022/09/12 08:30:05;;;;;;;;;;;;;;;26.43;43.68;101276.75;5003186;28;19926;-68
2022/09/12 08:32:34;;;;;;;;;;;;;;;27.02;44.40;101280.91;5006471;28;19928;-68
2022/09/12 08:35:00;;;;;;;;;;;;;;;26.92;43.47;101274.03;5006666;28;20502;-68
2022/09/12 08:37:29;;;;;;;;;;;;;;;27.17;43.31;101278.31;5005844;28;19925;-68
2022/09/12 08:39:55;;;;;;;;;;;;;;;27.45;41.86;101278.72;5000546;28;19976;-68
2022/09/12 08:42:28;;;;;;;;;;;;;;;27.55;41.48;101280.22;5002364;28;20262;-68
2022/09/12 08:45:01;;;;;;;;;;;;;;;26.89;44.23;101285.16;5005666;28;19976;-68
2022/09/12 08:47:30;;;;;;;;;;;;;;;26.98;44.89;101274.19;5006971;28;20043;-68
2022/09/12 08:50:02;;;;;;;;;;;;;;;27.69;44.39;101281.31;5004228;28;19921;-68
2022/09/12 08:52:31;;;;;;;;;;;;;;;27.98;44.07;101278.78;5004897;28;19921;-68
2022/09/12 08:54:57;;;;;;;;;;;;;;;27.56;40.72;101271.13;5003088;28;19922;-68
2022/09/12 08:57:24;;;;;;;;;;;;;;;27.27;42.44;101278.94;4987376;28;19968;-68
2022/09/12 08:59:51;;;;;;;;;;;;;;;27.20;42.62;101274.47;4984165;28;19960;-68
2022/09/12 09:02:33;;;;;;;;;;;;;;;27.15;42.34;101272.28;4987408;28;19949;-68
2022/09/12 09:05:06;;;;;;;;;;;;;;;26.31;43.21;101263.84;4984935;28;19922;-67
2022/09/12 09:07:51;;;;;;;;;;;;;;;27.29;41.56;101263.47;5004319;28;20321;-67
2022/09/12 09:10:22;;;;;;;;;;;;;;;27.52;41.63;101268.97;4997806;28;19921;-67
2022/09/12 09:12:52;;;;;;;;;;;;;;;26.67;43.82;101272.38;5001970;28;20014;-67
2022/09/12 09:15:30;;;;;;;;;;;;;;;26.99;44.44;101267.78;5005928;28;19957;-67
2022/09/12 09:17:59;;;;;;;;;;;;;;;26.97;42.98;101263.59;5004305;28;19921;-67
2022/09/12 09:20:30;;;;;;;;;;;;;;;27.61;42.73;101258.97;5004806;28;19972;-67
2022/09/12 09:22:58;;;;;;;;;;;;;;;28.16;40.54;101248.84;5005131;28;19921;-67
2022/09/12 09:25:26;;;;;;;;;;;;;;;28.13;39.10;101256.44;5005435;28;19965;-67
2022/09/12 09:27:57;;;;;;;;;;;;;;;27.54;40.22;101258.84;4992479;28;19929;-67
2022/09/12 09:30:23;;;;;;;;;;;;;;;27.33;42.34;101251.34;5002925;28;20436;-67
2022/09/12 09:32:51;;;;;;;;;;;;;;;27.74;42.30;101252.00;5004463;28;19921;-67
2022/09/12 09:35:22;;;;;;;;;;;;;;;27.86;40.39;101261.31;5005640;28;19922;-67
2022/09/12 09:38:03;;;;;;;;;;;;;;;28.45;40.67;101256.19;5003998;28;19922;-67
2022/09/12 09:40:37;;;;;;;;;;;;;;;28.42;40.85;101251.13;5004081;28;19928;-67
2022/09/12 09:43:06;;;;;;;;;;;;;;;28.57;39.96;101252.00;5002865;28;20037;-68
2022/09/12 09:45:33;;;;;;;;;;;;;;;28.92;39.88;101251.34;5004814;28;19972;-68
2022/09/12 09:48:06;;;;;;;;;;;;;;;28.79;40.15;101255.69;5001873;28;19973;-67
2022/09/12 09:50:32;;;;;;;;;;;;;;;28.15;39.69;101241.78;4986266;28;19922;-67
2022/09/12 09:53:01;;;;;;;;;;;;;;;26.64;42.06;101250.16;4985099;28;19939;-67
2022/09/12 09:55:29;;;;;;;;;;;;;;;27.54;40.59;101239.97;4983863;28;19996;-66
2022/09/12 09:57:57;;;;;;;;;;;;;;;27.43;42.44;101243.03;4999665;28;19922;-68
2022/09/12 10:00:25;;;;;;;;;;;;;;;27.68;41.44;101241.09;5003293;28;19922;-67
2022/09/12 10:03:03;;;;;;;;;;;;;;;27.88;40.31;101235.03;4989196;28;19926;-67
2022/09/12 10:05:30;;;;;;;;;;;;;;;27.44;39.92;101239.34;5001711;28;19921;-67
2022/09/12 10:07:57;;;;;;;;;;;;;;;27.16;39.58;101240.81;5000941;28;19938;-68
2022/09/12 10:10:24;;;;;;;;;;;;;;;27.67;40.26;101229.47;5001373;28;19932;-67
2022/09/12 10:12:50;;;;;;;;;;;;;;;26.53;42.83;101228.19;4992226;28;19921;-67
2022/09/12 10:15:19;;;;;;;;;;;;;;;25.08;44.72;101236.81;4998294;28;20420;-67
2022/09/12 10:17:46;;;;;;;;;;;;;;;25.76;42.77;101226.81;4976157;28;19926;-67
2022/09/12 10:20:27;;;;;;;;;;;;;;;26.19;43.03;101225.72;4977228;28;19922;-67
2022/09/12 10:22:53;;;;;;;;;;;;;;;27.32;40.05;101219.19;4967094;28;19985;-68
2022/09/12 10:25:20;;;;;;;;;;;;;;;27.16;39.97;101214.75;4984355;28;20332;-67
2022/09/12 10:27:52;;;;;;;;;;;;;;;27.69;41.65;101211.25;4986899;28;19976;-68
2022/09/12 10:30:23;;;;;;;;;;;;;;;27.82;40.95;101216.91;4984421;28;20374;-67
2022/09/12 10:32:50;;;;;;;;;;;;;;;28.15;36.33;101213.97;4985091;28;19922;-67
2022/09/12 10:35:18;;;;;;;;;;;;;;;28.35;36.81;101207.03;4985736;28;19922;-68
2022/09/12 10:37:51;;;;;;;;;;;;;;;27.72;36.15;101205.50;4985639;28;19922;-67
2022/09/12 10:40:22;;;;;;;;;;;;;;;27.50;39.29;101209.03;5005014;28;20328;-67
2022/09/12 10:42:49;;;;;;;;;;;;;;;26.94;38.74;101202.88;4989547;28;19922;-67
2022/09/12 10:45:25;;;;;;;;;;;;;;;26.92;41.21;101207.59;5001320;28;19928;-69
2022/09/12 10:47:52;;;;;;;;;;;;;;;27.22;40.22;101203.25;5008968;28;19929;-67
2022/09/12 10:50:22;;;;;;;;;;;;;;;26.74;39.15;101198.03;5007784;28;19928;-67
2022/09/12 10:52:48;;;;;;;;;;;;;;;25.90;41.94;101196.63;4997476;28;20369;-67
2022/09/12 10:55:15;;;;;;;;;;;;;;;26.39;41.75;101199.28;4998151;28;19925;-67
2022/09/12 10:57:55;;;;;;;;;;;;;;;26.70;40.08;101197.56;5010109;28;20381;-67
2022/09/12 11:00:26;;;;;;;;;;;;;;;26.81;39.93;101194.50;5008055;28;19930;-67
2022/09/12 11:02:58;;;;;;;;;;;;;;;26.92;39.10;101191.44;5008068;28;19971;-67
2022/09/12 11:05:41;;;;;;;;;;;;;;;27.35;38.77;101187.38;5007777;28;20447;-67
2022/09/12 11:08:12;;;;;;;;;;;;;;;27.57;37.30;101188.44;5000778;28;19964;-67
2022/09/12 11:10:43;;;;;;;;;;;;;;;27.10;38.75;101191.19;5006014;28;20007;-67
2022/09/12 11:13:20;;;;;;;;;;;;;;;27.09;40.22;101186.81;5006753;28;19921;-67
2022/09/12 11:15:55;;;;;;;;;;;;;;;26.94;38.63;101186.72;5007065;28;20011;-67
2022/09/12 11:18:39;;;;;;;;;;;;;;;25.89;40.61;101186.03;5006858;28;19956;-67
2022/09/12 11:21:15;;;;;;;;;;;;;;;26.35;39.65;101182.66;5007491;28;20012;-67
2022/09/12 11:24:01;;;;;;;;;;;;;;;26.91;39.10;101179.00;5006643;28;19971;-67
2022/09/12 11:26:34;;;;;;;;;;;;;;;26.02;38.80;101187.19;5006791;28;19925;-66
2022/09/12 11:29:09;;;;;;;;;;;;;;;26.93;39.13;101176.16;5002495;28;19921;-66
2022/09/12 11:31:46;;;;;;;;;;;;;;;27.62;39.60;101171.75;4994839;28;19926;-66
2022/09/12 11:34:17;;;;;;;;;;;;;;;28.50;36.22;101170.13;4999799;28;20048;-66
2022/09/12 11:36:49;;;;;;;;;;;;;;;28.26;36.69;101167.69;5005087;28;19960;-67
2022/09/12 11:39:16;;;;;;;;;;;;;;;27.43;37.41;101162.25;4991493;28;19953;-67
2022/09/12 11:41:46;;;;;;;;;;;;;;;27.26;39.46;101166.91;4994769;28;19930;-66
2022/09/12 11:44:18;;;;;;;;;;;;;;;27.57;38.47;101156.09;5005385;28;19988;-66
2022/09/12 11:46:45;;;;;;;;;;;;;;;27.73;38.63;101161.38;5005741;28;20381;-66
2022/09/12 11:49:16;;;;;;;;;;;;;;;27.80;36.41;101159.66;4992383;28;19921;-67
2022/09/12 11:51:47;;;;;;;;;;;;;;;28.02;36.57;101147.16;4997124;28;19921;-67
2022/09/12 11:54:20;;;;;;;;;;;;;;;27.87;38.02;101152.50;5001045;28;19921;-66
2022/09/12 11:56:47;;;;;;;;;;;;;;;27.84;37.04;101146.66;4982119;28;19925;-66
2022/09/12 11:59:19;;;;;;;;;;;;;;;27.22;37.28;101149.41;4968521;28;19926;-67
2022/09/12 12:01:49;;;;;;;;;;;;;;;25.44;39.68;101154.22;4957598;28;20275;-67
2022/09/12 12:04:17;;;;;;;;;;;;;;;25.59;41.96;101157.97;4969330;28;19949;-67
2022/09/12 12:06:50;;;;;;;;;;;;;;;26.10;40.03;101151.41;4972101;28;19976;-67
2022/09/12 12:09:17;;;;;;;;;;;;;;;26.42;42.00;101150.56;4989522;28;19921;-67
2022/09/12 12:11:44;;;;;;;;;;;;;;;26.76;39.04;101148.41;5008023;28;19952;-68
2022/09/12 12:14:14;;;;;;;;;;;;;;;26.87;38.26;101148.06;4998268;28;20370;-67
2022/09/12 12:16:40;;;;;;;;;;;;;;;27.09;37.98;101143.75;5005923;28;20514;-67
2022/09/12 12:19:10;;;;;;;;;;;;;;;27.03;38.66;101139.09;4998580;28;19922;-67
2022/09/12 12:21:40;;;;;;;;;;;;;;;26.93;39.45;101138.47;4994372;28;20300;-68
2022/09/12 12:24:14;;;;;;;;;;;;;;;26.86;40.03;101138.34;5000793;28;20369;-68
2022/09/12 12:26:42;;;;;;;;;;;;;;;26.57;40.72;101133.53;4986444;28;20000;-68
2022/09/12 12:29:09;;;;;;;;;;;;;;;25.58;41.31;101143.69;4994235;28;19944;-68
2022/09/12 12:31:58;;;;;;;;;;;;;;;25.14;40.25;101137.72;5005818;28;19969;-67
2022/09/12 12:34:29;;;;;;;;;;;;;;;25.83;42.65;101138.34;5007036;28;20015;-68
2022/09/12 12:36:56;;;;;;;;;;;;;;;25.82;40.46;101126.75;5007280;28;19921;-68
2022/09/12 12:39:43;;;;;;;;;;;;;;;25.92;39.93;101132.78;5005704;28;19921;-69
2022/09/12 12:42:30;;;;;;;;;;;;;;;25.27;41.94;101134.56;5006235;28;19921;-67
2022/09/12 12:44:57;;;;;;;;;;;;;;;24.94;40.96;101130.97;5001661;28;19944;-67